createdAt,value
2018-07-16T00:00:41.900Z,3.40
2018-07-16T00:03:11.258Z,3.27
2018-07-16T00:05:40.936Z,3.03
2018-07-16T00:08:10.283Z,3.03
2018-07-16T00:10:39.655Z,3.20
2018-07-16T00:13:09.024Z,2.83
2018-07-16T00:15:38.388Z,3.23
2018-07-16T00:18:07.874Z,3.03
2018-07-16T00:20:37.196Z,3.10
2018-07-16T00:23:06.622Z,2.80
2018-07-16T00:25:35.903Z,3.40
2018-07-16T00:28:05.430Z,2.40
2018-07-16T00:30:34.826Z,2.80
2018-07-16T00:33:04.135Z,3.27
2018-07-16T00:35:33.434Z,3.17
2018-07-16T00:38:02.675Z,3.30
2018-07-16T00:40:32.098Z,3.00
2018-07-16T00:43:01.683Z,3.20
2018-07-16T00:45:31.254Z,3.50
2018-07-16T00:48:00.574Z,3.83
2018-07-16T00:50:29.926Z,3.33
2018-07-16T00:52:59.383Z,2.93
2018-07-16T00:55:28.709Z,3.53
2018-07-16T00:57:58.094Z,3.00
2018-07-16T01:00:27.704Z,2.90
2018-07-16T01:02:57.197Z,3.00
2018-07-16T01:05:26.552Z,3.20
2018-07-16T01:07:56.195Z,2.97
2018-07-16T01:10:25.531Z,3.40
2018-07-16T01:12:55.311Z,3.70
2018-07-16T01:15:24.918Z,3.07
2018-07-16T01:17:54.663Z,3.07
2018-07-16T01:20:24.054Z,3.50
2018-07-16T01:22:53.547Z,3.50
2018-07-16T01:25:23.403Z,3.20
2018-07-16T01:27:52.922Z,3.43
2018-07-16T01:30:22.331Z,3.57
2018-07-16T01:32:51.606Z,3.70
2018-07-16T01:35:21.200Z,3.40
2018-07-16T01:37:51.043Z,3.30
2018-07-16T01:40:20.344Z,3.30
2018-07-16T01:42:49.652Z,3.40
2018-07-16T01:45:19.134Z,3.57
2018-07-16T01:47:48.714Z,3.40
2018-07-16T01:50:18.056Z,3.50
2018-07-16T01:52:47.605Z,3.40
2018-07-16T01:55:17.027Z,3.70
2018-07-16T01:57:46.672Z,3.50
2018-07-16T02:00:16.202Z,3.27
2018-07-16T02:02:45.555Z,3.60
2018-07-16T02:05:14.903Z,3.43
2018-07-16T02:07:44.500Z,3.70
2018-07-16T02:10:13.994Z,3.17
2018-07-16T02:12:43.297Z,4.17
2018-07-16T02:15:12.808Z,3.60
2018-07-16T02:17:42.128Z,3.50
2018-07-16T02:20:11.631Z,3.63
2018-07-16T02:22:40.979Z,3.70
2018-07-16T02:25:10.598Z,3.57
2018-07-16T02:27:39.918Z,4.00
2018-07-16T02:30:09.263Z,3.90
2018-07-16T02:32:38.666Z,3.93
2018-07-16T02:35:08.309Z,4.30
2018-07-16T02:37:37.614Z,3.63
2018-07-16T02:40:06.887Z,4.00
2018-07-16T02:42:36.431Z,3.87
2018-07-16T02:45:05.754Z,3.90
2018-07-16T02:47:35.140Z,3.90
2018-07-16T02:50:04.728Z,4.03
2018-07-16T02:52:34.014Z,3.93
2018-07-16T02:55:03.390Z,4.50
2018-07-16T02:57:33.256Z,3.97
2018-07-16T03:00:02.635Z,3.97
2018-07-16T03:02:34.827Z,4.33
2018-07-16T03:05:04.816Z,4.33
2018-07-16T03:07:34.789Z,4.20
2018-07-16T03:10:04.340Z,4.27
2018-07-16T03:12:33.794Z,4.13
2018-07-16T03:15:03.545Z,5.00
2018-07-16T03:17:33.440Z,4.50
2018-07-16T03:20:02.983Z,4.70
2018-07-16T03:22:32.539Z,4.00
2018-07-16T03:25:01.951Z,4.90
2018-07-16T03:27:31.241Z,4.90
2018-07-16T03:30:00.868Z,5.00
2018-07-16T03:32:30.470Z,4.73
2018-07-16T03:35:00.322Z,4.33
2018-07-16T03:37:29.651Z,4.77
2018-07-16T03:39:59.148Z,4.30
2018-07-16T03:42:28.442Z,4.23
2018-07-16T03:44:57.990Z,4.23
2018-07-16T03:47:27.375Z,4.83
2018-07-16T03:49:57.078Z,4.10
2018-07-16T03:52:26.660Z,4.20
2018-07-16T03:54:56.106Z,4.70
2018-07-16T03:57:25.495Z,4.60
2018-07-16T03:59:55.134Z,4.43
2018-07-16T04:02:24.656Z,4.53
2018-07-16T04:04:53.990Z,4.67
2018-07-16T04:07:23.331Z,4.57
2018-07-16T04:09:53.007Z,4.57
2018-07-16T04:12:22.576Z,5.10
2018-07-16T04:14:52.004Z,4.97
2018-07-16T04:17:22.030Z,4.10
2018-07-16T04:19:51.582Z,4.50
2018-07-16T04:22:20.911Z,4.30
2018-07-16T04:24:50.286Z,4.20
2018-07-16T04:27:19.686Z,4.17
2018-07-16T04:29:49.063Z,4.70
2018-07-16T04:32:18.623Z,4.30
2018-07-16T04:34:47.964Z,3.50
2018-07-16T04:37:17.259Z,4.10
2018-07-16T04:39:47.016Z,4.30
2018-07-16T04:42:16.525Z,4.30
2018-07-16T04:44:46.147Z,4.23
2018-07-16T04:47:15.536Z,4.57
2018-07-16T04:49:45.011Z,4.50
2018-07-16T04:52:14.580Z,4.07
2018-07-16T04:54:44.063Z,4.00
2018-07-16T04:57:13.454Z,4.20
2018-07-16T04:59:42.769Z,4.03
2018-07-16T05:02:12.274Z,3.97
2018-07-16T05:04:41.752Z,4.20
2018-07-16T05:07:11.372Z,4.27
2018-07-16T05:09:41.019Z,3.80
2018-07-16T05:12:10.691Z,4.23
2018-07-16T05:14:39.987Z,4.10
2018-07-16T05:17:09.365Z,4.10
2018-07-16T05:19:38.365Z,4.47
2018-07-16T05:22:07.899Z,4.27
2018-07-16T05:24:37.299Z,3.90
2018-07-16T05:27:07.335Z,4.47
2018-07-16T05:29:36.656Z,3.80
2018-07-16T05:32:06.105Z,3.80
2018-07-16T05:34:35.310Z,3.87
2018-07-16T05:37:04.696Z,3.83
2018-07-16T05:39:33.947Z,4.40
2018-07-16T05:42:03.385Z,4.43
2018-07-16T05:44:32.488Z,4.30
2018-07-16T05:47:01.750Z,4.07
2018-07-16T05:49:31.195Z,3.73
2018-07-16T05:52:00.575Z,4.40
2018-07-16T05:54:29.999Z,4.10
2018-07-16T05:56:59.638Z,3.70
2018-07-16T05:59:29.088Z,4.30
2018-07-16T06:01:58.568Z,4.83
2018-07-16T06:04:27.916Z,5.03
2018-07-16T06:06:57.318Z,4.50
2018-07-16T06:09:26.611Z,4.30
2018-07-16T06:11:56.047Z,4.60
2018-07-16T06:14:25.862Z,4.77
2018-07-16T06:16:55.325Z,4.83
2018-07-16T06:19:24.886Z,4.80
2018-07-16T06:21:54.376Z,4.50
2018-07-16T06:24:23.832Z,5.47
2018-07-16T06:26:54.351Z,4.80
2018-07-16T06:29:23.611Z,4.73
2018-07-16T06:31:52.904Z,4.53
2018-07-16T06:34:22.423Z,5.27
2018-07-16T06:36:51.776Z,5.50
2018-07-16T06:39:21.212Z,5.00
2018-07-16T06:41:50.614Z,5.00
2018-07-16T06:44:19.983Z,4.67
2018-07-16T06:46:49.672Z,4.80
2018-07-16T06:49:19.414Z,4.80
2018-07-16T06:51:48.924Z,4.93
2018-07-16T06:54:18.305Z,5.33
2018-07-16T06:56:47.663Z,5.70
2018-07-16T06:59:16.921Z,4.90
2018-07-16T07:01:46.383Z,5.90
2018-07-16T07:04:15.713Z,5.03
2018-07-16T07:06:45.143Z,5.10
2018-07-16T07:09:14.403Z,4.93
2018-07-16T07:11:43.749Z,4.97
2018-07-16T07:14:13.063Z,5.30
2018-07-16T07:16:42.506Z,4.77
2018-07-16T07:19:11.882Z,5.50
2018-07-16T07:21:41.219Z,5.37
2018-07-16T07:24:10.638Z,5.63
2018-07-16T07:26:40.000Z,5.63
2018-07-16T07:29:09.323Z,5.30
2018-07-16T07:31:38.740Z,4.30
2018-07-16T07:34:08.175Z,4.20
2018-07-16T07:36:37.436Z,4.70
2018-07-16T07:39:07.707Z,4.30
2018-07-16T07:41:37.323Z,4.30
2018-07-16T07:44:06.763Z,4.40
2018-07-16T07:46:36.123Z,3.57
2018-07-16T07:49:05.640Z,3.13
2018-07-16T07:51:35.087Z,3.60
2018-07-16T07:54:04.583Z,3.57
2018-07-16T07:56:33.980Z,3.30
2018-07-16T07:59:03.312Z,3.37
2018-07-16T08:01:32.599Z,3.03
2018-07-16T08:04:01.936Z,3.43
2018-07-16T08:06:31.307Z,3.40
2018-07-16T08:09:00.616Z,3.60
2018-07-16T08:11:29.937Z,3.73
2018-07-16T08:13:59.287Z,3.93
2018-07-16T08:16:28.588Z,3.53
2018-07-16T08:18:58.120Z,3.20
2018-07-16T08:21:27.461Z,3.67
2018-07-16T08:23:56.751Z,3.70
2018-07-16T08:26:26.221Z,3.30
2018-07-16T08:28:55.551Z,3.30
2018-07-16T08:31:25.998Z,3.50
2018-07-16T08:33:55.346Z,3.57
2018-07-16T08:36:24.671Z,3.33
2018-07-16T08:38:54.035Z,2.97
2018-07-16T08:41:23.024Z,2.90
2018-07-16T08:43:53.026Z,3.40
2018-07-16T08:46:22.447Z,3.47
2018-07-16T08:48:51.850Z,3.23
2018-07-16T08:51:21.393Z,2.83
2018-07-16T08:53:50.753Z,3.70
2018-07-16T08:56:20.283Z,3.37
2018-07-16T08:58:51.163Z,2.97
2018-07-16T09:01:20.711Z,2.87
2018-07-16T09:03:51.256Z,2.97
2018-07-16T09:06:20.859Z,3.50
2018-07-16T09:08:50.216Z,3.20
2018-07-16T09:11:19.835Z,3.23
2018-07-16T09:13:49.653Z,2.97
2018-07-16T09:16:20.168Z,3.00
2018-07-16T09:18:49.543Z,3.70
2018-07-16T09:21:21.100Z,3.10
2018-07-16T09:23:50.412Z,3.10
2018-07-16T09:26:19.837Z,3.33
2018-07-16T09:28:49.313Z,3.43
2018-07-16T09:31:19.104Z,4.27
2018-07-16T09:33:48.829Z,3.80
2018-07-16T09:36:18.613Z,4.30
2018-07-16T09:38:48.551Z,3.20
2018-07-16T09:41:18.619Z,3.60
2018-07-16T09:43:50.484Z,3.30
2018-07-16T09:46:20.297Z,3.60
2018-07-16T09:48:50.437Z,3.50
2018-07-16T09:51:19.983Z,3.53
2018-07-16T09:53:49.282Z,3.50
2018-07-16T09:56:18.794Z,3.33
2018-07-16T09:58:48.390Z,3.17
2018-07-16T10:01:25.521Z,3.63
2018-07-16T10:03:55.676Z,3.17
2018-07-16T10:06:25.724Z,3.30
2018-07-16T10:08:56.659Z,3.00
2018-07-16T10:11:26.287Z,3.57
2018-07-16T10:13:55.842Z,3.13
2018-07-16T10:16:25.203Z,3.00
2018-07-16T10:18:54.739Z,2.87
2018-07-16T10:21:24.762Z,3.20
2018-07-16T10:23:54.209Z,2.50
2018-07-16T10:26:24.035Z,3.00
2018-07-16T10:28:53.637Z,2.73
2018-07-16T10:31:23.150Z,3.30
2018-07-16T10:33:52.745Z,3.73
2018-07-16T10:36:22.723Z,2.87
2018-07-16T10:38:52.355Z,3.03
2018-07-16T10:41:22.012Z,3.17
2018-07-16T10:43:52.446Z,3.10
2018-07-16T10:46:22.071Z,3.00
2018-07-16T10:48:51.781Z,3.00
2018-07-16T10:51:21.280Z,2.83
2018-07-16T10:53:51.922Z,2.93
2018-07-16T10:56:21.347Z,2.60
2018-07-16T10:58:50.716Z,3.00
2018-07-16T11:01:20.112Z,2.57
2018-07-16T11:03:49.782Z,2.47
2018-07-16T11:06:24.316Z,2.60
2018-07-16T11:08:54.734Z,2.30
2018-07-16T11:11:24.771Z,2.60
2018-07-16T11:13:54.090Z,2.60
2018-07-16T11:16:23.395Z,1.80
2018-07-16T11:18:52.728Z,2.10
2018-07-16T11:21:22.179Z,2.50
2018-07-16T11:23:51.535Z,2.40
2018-07-16T11:26:20.957Z,2.40
2018-07-16T11:28:50.450Z,2.40
2018-07-16T11:31:19.917Z,2.00
2018-07-16T11:33:49.375Z,2.57
2018-07-16T11:36:18.994Z,2.47
2018-07-16T11:38:48.610Z,2.23
2018-07-16T11:41:18.114Z,2.40
2018-07-16T11:43:47.638Z,2.20
2018-07-16T11:46:17.092Z,2.00
2018-07-16T11:48:46.499Z,2.20
2018-07-16T11:51:16.631Z,2.40
2018-07-16T11:53:45.911Z,2.50
2018-07-16T11:56:15.552Z,2.80
2018-07-16T11:58:45.050Z,2.43
2018-07-16T12:01:14.474Z,2.10
2018-07-16T12:03:44.490Z,2.30
2018-07-16T12:06:19.312Z,2.67
2018-07-16T12:08:48.683Z,2.27
2018-07-16T12:11:19.515Z,2.73
2018-07-16T12:13:49.107Z,2.67
2018-07-16T12:16:18.581Z,2.53
2018-07-16T12:18:48.278Z,2.40
2018-07-16T12:21:17.879Z,2.40
2018-07-16T12:23:47.924Z,2.50
2018-07-16T12:26:17.293Z,3.47
2018-07-16T12:28:46.682Z,2.90
2018-07-16T12:31:16.246Z,4.40
2018-07-16T12:33:45.641Z,2.43
2018-07-16T12:36:15.332Z,2.63
2018-07-16T12:38:44.825Z,2.27
2018-07-16T12:41:14.214Z,2.60
2018-07-16T12:43:44.490Z,2.80
2018-07-16T12:46:13.877Z,2.40
2018-07-16T12:48:43.204Z,2.00
2018-07-16T12:51:12.484Z,2.30
2018-07-16T12:53:41.791Z,2.27
2018-07-16T12:56:12.429Z,2.60
2018-07-16T12:58:41.835Z,2.37
2018-07-16T13:01:11.596Z,2.13
2018-07-16T13:03:41.119Z,2.27
2018-07-16T13:06:10.548Z,2.40
2018-07-16T13:08:40.366Z,4.43
2018-07-16T13:11:10.102Z,2.60
2018-07-16T13:13:40.116Z,2.37
2018-07-16T13:16:10.103Z,2.37
2018-07-16T13:18:41.994Z,2.27
2018-07-16T13:21:12.036Z,2.40
2018-07-16T13:23:46.846Z,2.33
2018-07-16T13:26:16.868Z,2.33
2018-07-16T13:28:47.022Z,1.90
2018-07-16T13:31:16.895Z,2.30
2018-07-16T13:33:46.857Z,2.30
2018-07-16T13:36:16.535Z,2.33
2018-07-16T13:38:46.125Z,2.40
2018-07-16T13:41:15.774Z,2.43
2018-07-16T13:43:45.475Z,2.50
2018-07-16T13:46:14.881Z,2.40
2018-07-16T13:48:44.348Z,2.43
2018-07-16T13:51:14.067Z,2.40
2018-07-16T13:53:44.032Z,2.47
2018-07-16T13:56:13.803Z,2.33
2018-07-16T13:58:43.634Z,2.60
2018-07-16T14:01:13.313Z,2.43
2018-07-16T14:03:43.369Z,2.50
2018-07-16T14:06:13.160Z,2.40
2018-07-16T14:08:42.657Z,2.50
2018-07-16T14:11:12.112Z,3.10
2018-07-16T14:13:41.746Z,2.90
2018-07-16T14:16:11.610Z,3.00
2018-07-16T14:18:41.036Z,3.00
2018-07-16T14:21:10.615Z,2.53
2018-07-16T14:23:40.012Z,3.13
2018-07-16T14:26:09.560Z,2.90
2018-07-16T14:28:39.424Z,2.97
2018-07-16T14:31:09.420Z,3.00
2018-07-16T14:33:39.200Z,2.80
2018-07-16T14:36:08.798Z,3.03
2018-07-16T14:38:38.404Z,2.93
2018-07-16T14:41:08.672Z,2.43
2018-07-16T14:43:38.401Z,2.80
2018-07-16T14:46:08.409Z,2.53
2018-07-16T14:48:38.075Z,2.40
2018-07-16T14:51:08.003Z,2.80
2018-07-16T14:53:37.404Z,3.10
2018-07-16T14:56:07.015Z,2.40
2018-07-16T14:58:36.633Z,2.53
2018-07-16T15:01:06.287Z,2.20
2018-07-16T15:03:35.384Z,2.10
2018-07-16T15:06:04.735Z,2.20
2018-07-16T15:08:34.192Z,2.13
2018-07-16T15:11:03.535Z,2.30
2018-07-16T15:13:32.966Z,2.20
2018-07-16T15:16:02.816Z,2.30
2018-07-16T15:18:32.030Z,2.23
2018-07-16T15:21:02.754Z,2.33
2018-07-16T15:23:31.906Z,2.43
2018-07-16T15:26:01.280Z,2.43
2018-07-16T15:28:31.044Z,2.40
2018-07-16T15:31:00.128Z,2.70
2018-07-16T15:33:30.770Z,2.43
2018-07-16T15:36:01.078Z,4.30
2018-07-16T15:38:31.121Z,2.77
2018-07-16T15:41:00.943Z,3.00
2018-07-16T15:43:30.918Z,2.60
2018-07-16T15:46:00.618Z,2.30
2018-07-16T15:48:30.059Z,2.20
2018-07-16T15:51:00.052Z,2.03
2018-07-16T15:53:29.812Z,2.20
2018-07-16T15:55:59.512Z,2.27
2018-07-16T15:58:29.378Z,2.53
2018-07-16T16:01:00.160Z,2.70
2018-07-16T16:03:29.516Z,2.50
2018-07-16T16:05:58.971Z,2.40
2018-07-16T16:08:28.523Z,2.17
2018-07-16T16:10:57.946Z,2.33
2018-07-16T16:13:27.631Z,2.57
2018-07-16T16:15:57.384Z,2.10
2018-07-16T16:18:26.857Z,2.40
2018-07-16T16:20:56.343Z,2.23
2018-07-16T16:23:25.835Z,3.10
2018-07-16T16:25:55.870Z,2.50
2018-07-16T16:28:25.893Z,2.70
2018-07-16T16:30:56.130Z,2.33
2018-07-16T16:33:26.746Z,3.00
2018-07-16T16:35:57.163Z,2.80
2018-07-16T16:38:27.155Z,2.20
2018-07-16T16:40:56.713Z,2.50
2018-07-16T16:43:26.305Z,2.30
2018-07-16T16:45:57.624Z,2.47
2018-07-16T16:48:30.805Z,2.27
2018-07-16T16:51:01.496Z,3.17
2018-07-16T16:53:31.722Z,3.03
2018-07-16T16:56:02.049Z,2.73
2018-07-16T16:58:32.217Z,3.10
2018-07-16T17:01:02.009Z,2.60
2018-07-16T17:03:32.103Z,2.90
2018-07-16T17:06:03.110Z,2.57
2018-07-16T17:08:33.032Z,2.40
2018-07-16T17:11:02.079Z,2.50
2018-07-16T17:13:32.299Z,2.80
2018-07-16T17:16:02.113Z,2.80
2018-07-16T17:18:31.989Z,2.70
2018-07-16T17:21:01.934Z,2.60
2018-07-16T17:23:31.346Z,2.10
2018-07-16T17:26:00.791Z,2.47
2018-07-16T17:28:30.211Z,2.50
2018-07-16T17:30:59.211Z,2.50
2018-07-16T17:33:28.666Z,2.80
2018-07-16T17:35:58.120Z,2.37
2018-07-16T17:38:27.714Z,2.27
2018-07-16T17:40:56.815Z,2.70
2018-07-16T17:43:26.791Z,2.30
2018-07-16T17:45:57.577Z,2.90
2018-07-16T17:48:26.980Z,2.43
2018-07-16T17:50:56.403Z,2.43
2018-07-16T17:53:25.872Z,3.07
2018-07-16T17:55:56.335Z,2.63
2018-07-16T17:58:26.236Z,2.70
2018-07-16T18:00:56.019Z,2.70
2018-07-16T18:03:25.790Z,2.63
2018-07-16T18:05:56.247Z,2.63
2018-07-16T18:08:26.038Z,2.90
2018-07-16T18:10:56.160Z,2.67
2018-07-16T18:13:25.832Z,2.40
2018-07-16T18:15:55.772Z,2.30
2018-07-16T18:18:25.131Z,2.57
2018-07-16T18:20:54.729Z,3.00
2018-07-16T18:23:24.102Z,2.77
2018-07-16T18:25:57.453Z,2.50
2018-07-16T18:28:27.258Z,2.53
2018-07-16T18:30:56.882Z,2.33
2018-07-16T18:33:26.795Z,2.67
2018-07-16T18:35:57.243Z,2.77
2018-07-16T18:38:26.551Z,2.90
2018-07-16T18:40:56.048Z,2.60
2018-07-16T18:43:25.427Z,2.83
2018-07-16T18:45:55.068Z,3.17
2018-07-16T18:48:24.384Z,2.63
2018-07-16T18:50:53.859Z,3.17
2018-07-16T18:53:23.480Z,3.10
2018-07-16T18:55:52.925Z,2.80
2018-07-16T18:58:22.352Z,2.63
2018-07-16T19:00:51.762Z,2.50
2018-07-16T19:03:21.536Z,2.90
2018-07-16T19:05:51.476Z,2.80
2018-07-16T19:08:21.133Z,2.90
2018-07-16T19:10:50.886Z,2.60
2018-07-16T19:13:20.466Z,2.80
2018-07-16T19:15:50.315Z,3.00
2018-07-16T19:18:20.035Z,2.97
2018-07-16T19:20:49.485Z,2.80
2018-07-16T19:23:18.855Z,2.80
2018-07-16T19:25:48.215Z,2.80
2018-07-16T19:28:17.341Z,3.23
2018-07-16T19:30:47.175Z,3.10
2018-07-16T19:33:16.728Z,3.70
2018-07-16T19:35:46.235Z,3.67
2018-07-16T19:38:15.623Z,3.27
2018-07-16T19:40:45.399Z,3.10
2018-07-16T19:43:14.890Z,3.13
2018-07-16T19:45:44.259Z,3.00
2018-07-16T19:48:13.627Z,3.23
2018-07-16T19:50:42.996Z,3.00
2018-07-16T19:53:13.049Z,3.60
2018-07-16T19:55:42.682Z,3.30
2018-07-16T19:58:12.094Z,3.27
2018-07-16T20:00:41.459Z,3.37
2018-07-16T20:03:10.783Z,3.00
2018-07-16T20:05:40.411Z,3.67
2018-07-16T20:08:09.831Z,3.90
2018-07-16T20:10:39.347Z,3.30
2018-07-16T20:13:08.810Z,4.63
2018-07-16T20:15:38.553Z,4.60
2018-07-16T20:18:08.095Z,3.90
2018-07-16T20:20:50.728Z,4.00
2018-07-16T20:23:20.119Z,3.80
2018-07-16T20:25:50.502Z,3.47
2018-07-16T20:28:20.105Z,4.00
2018-07-16T20:30:49.914Z,4.00
2018-07-16T20:33:19.767Z,4.20
2018-07-16T20:35:49.652Z,3.90
2018-07-16T20:38:19.301Z,4.97
2018-07-16T20:40:49.260Z,4.87
2018-07-16T20:43:19.016Z,4.10
2018-07-16T20:45:48.582Z,3.80
2018-07-16T20:48:18.239Z,4.27
2018-07-16T20:50:47.970Z,4.03
2018-07-16T20:53:17.791Z,4.33
2018-07-16T20:55:47.240Z,3.90
2018-07-16T20:58:16.898Z,4.10
2018-07-16T21:00:46.340Z,4.53
2018-07-16T21:03:15.754Z,4.23
2018-07-16T21:05:46.019Z,3.97
2018-07-16T21:08:15.550Z,4.10
2018-07-16T21:10:45.194Z,4.00
2018-07-16T21:13:14.588Z,4.10
2018-07-16T21:15:44.171Z,3.67
2018-07-16T21:18:13.571Z,4.30
2018-07-16T21:20:43.156Z,4.50
2018-07-16T21:23:12.640Z,4.03
2018-07-16T21:25:42.088Z,4.27
2018-07-16T21:28:11.803Z,4.07
2018-07-16T21:30:41.513Z,4.37
2018-07-16T21:33:13.388Z,4.77
2018-07-16T21:35:43.205Z,4.37
2018-07-16T21:38:12.799Z,3.40
2018-07-16T21:40:42.260Z,4.43
2018-07-16T21:43:11.626Z,4.10
2018-07-16T21:45:40.889Z,4.40
2018-07-16T21:48:10.497Z,4.77
2018-07-16T21:50:40.801Z,4.43
2018-07-16T21:53:10.225Z,4.60
2018-07-16T21:55:39.708Z,4.07
2018-07-16T21:58:09.319Z,4.20
2018-07-16T22:00:39.046Z,4.00
2018-07-16T22:03:08.459Z,4.30
2018-07-16T22:05:37.866Z,4.60
2018-07-16T22:08:07.505Z,4.10
2018-07-16T22:10:37.033Z,4.30
2018-07-16T22:13:06.453Z,4.50
2018-07-16T22:15:36.700Z,4.80
2018-07-16T22:18:06.798Z,4.70
2018-07-16T22:20:37.320Z,5.17
2018-07-16T22:23:07.046Z,4.60
2018-07-16T22:25:36.854Z,4.63
2018-07-16T22:28:07.229Z,4.03
2018-07-16T22:30:36.603Z,4.10
2018-07-16T22:33:06.543Z,5.03
2018-07-16T22:35:36.018Z,4.90
2018-07-16T22:38:05.670Z,4.37
2018-07-16T22:40:35.162Z,4.83
2018-07-16T22:43:04.766Z,4.63
2018-07-16T22:45:34.391Z,4.50
2018-07-16T22:48:04.151Z,4.67
2018-07-16T22:50:33.647Z,5.57
2018-07-16T22:53:03.157Z,4.70
2018-07-16T22:55:32.803Z,5.17
2018-07-16T22:58:02.460Z,4.33
2018-07-16T23:00:32.243Z,5.00
2018-07-16T23:03:01.912Z,4.83
2018-07-16T23:05:31.675Z,4.83
2018-07-16T23:08:01.496Z,4.80
2018-07-16T23:10:31.066Z,4.70
2018-07-16T23:13:01.185Z,4.63
2018-07-16T23:15:31.289Z,4.63
2018-07-16T23:18:00.816Z,5.07
2018-07-16T23:20:30.664Z,5.00
2018-07-16T23:23:00.138Z,4.87
2018-07-16T23:25:29.735Z,5.63
2018-07-16T23:27:59.560Z,5.60
2018-07-16T23:30:29.238Z,5.00
2018-07-16T23:32:58.638Z,4.93
2018-07-16T23:35:28.551Z,4.63
2018-07-16T23:37:58.037Z,5.17
2018-07-16T23:40:27.422Z,4.97
2018-07-16T23:42:56.914Z,5.00
2018-07-16T23:45:26.317Z,5.30
2018-07-16T23:47:55.916Z,4.90
2018-07-16T23:50:25.378Z,5.23
2018-07-16T23:52:54.846Z,5.03
2018-07-16T23:55:24.351Z,5.47
2018-07-16T23:57:53.790Z,5.83
